sensor_id;sensor_type;location;lat;lon;timestamp;P1;durP1;ratioP1;P2;durP2;ratioP2
23682;SDS011;24897;53.514;10.482;2023-07-31T00:01:48;35.90;;;28.87;;
23682;SDS011;24897;53.514;10.482;2023-07-31T00:04:32;33.37;;;28.33;;
23682;SDS011;24897;53.514;10.482;2023-07-31T00:07:16;36.90;;;29.27;;
23682;SDS011;24897;53.514;10.482;2023-07-31T00:10:00;39.63;;;29.40;;
23682;SDS011;24897;53.514;10.482;2023-07-31T00:12:44;37.23;;;29.37;;
23682;SDS011;24897;53.514;10.482;2023-07-31T00:15:29;34.77;;;30.03;;
23682;SDS011;24897;53.514;10.482;2023-07-31T00:18:13;36.67;;;31.17;;
23682;SDS011;24897;53.514;10.482;2023-07-31T00:20:57;36.20;;;30.40;;
23682;SDS011;24897;53.514;10.482;2023-07-31T00:23:41;37.63;;;30.40;;
23682;SDS011;24897;53.514;10.482;2023-07-31T00:26:26;38.67;;;30.30;;
23682;SDS011;24897;53.514;10.482;2023-07-31T00:29:10;37.37;;;29.90;;
23682;SDS011;24897;53.514;10.482;2023-07-31T00:31:54;33.60;;;28.43;;
23682;SDS011;24897;53.514;10.482;2023-07-31T00:34:38;33.43;;;28.77;;
23682;SDS011;24897;53.514;10.482;2023-07-31T00:37:22;39.70;;;29.67;;
23682;SDS011;24897;53.514;10.482;2023-07-31T00:40:06;38.03;;;29.97;;
23682;SDS011;24897;53.514;10.482;2023-07-31T00:42:51;34.93;;;29.27;;
23682;SDS011;24897;53.514;10.482;2023-07-31T00:45:35;39.83;;;29.53;;
23682;SDS011;24897;53.514;10.482;2023-07-31T00:48:20;38.83;;;29.53;;
23682;SDS011;24897;53.514;10.482;2023-07-31T00:51:04;37.83;;;28.80;;
23682;SDS011;24897;53.514;10.482;2023-07-31T00:53:48;38.27;;;29.17;;
23682;SDS011;24897;53.514;10.482;2023-07-31T00:56:32;35.10;;;29.57;;
23682;SDS011;24897;53.514;10.482;2023-07-31T00:59:16;38.30;;;29.30;;
23682;SDS011;24897;53.514;10.482;2023-07-31T01:02:02;36.70;;;29.70;;
23682;SDS011;24897;53.514;10.482;2023-07-31T01:05:02;37.73;;;30.33;;
23682;SDS011;24897;53.514;10.482;2023-07-31T01:07:52;39.63;;;31.00;;
23682;SDS011;24897;53.514;10.482;2023-07-31T01:10:54;39.07;;;30.17;;
23682;SDS011;24897;53.514;10.482;2023-07-31T01:13:42;37.10;;;30.67;;
23682;SDS011;24897;53.514;10.482;2023-07-31T01:16:28;35.03;;;30.27;;
23682;SDS011;24897;53.514;10.482;2023-07-31T01:19:12;38.87;;;30.87;;
23682;SDS011;24897;53.514;10.482;2023-07-31T01:22:04;37.17;;;30.43;;
23682;SDS011;24897;53.514;10.482;2023-07-31T01:25:16;42.63;;;31.13;;
23682;SDS011;24897;53.514;10.482;2023-07-31T01:28:24;35.47;;;29.70;;
23682;SDS011;24897;53.514;10.482;2023-07-31T01:31:14;34.90;;;30.40;;
23682;SDS011;24897;53.514;10.482;2023-07-31T01:34:03;40.40;;;30.97;;
23682;SDS011;24897;53.514;10.482;2023-07-31T01:36:48;37.37;;;29.30;;
23682;SDS011;24897;53.514;10.482;2023-07-31T01:39:32;38.90;;;30.67;;
23682;SDS011;24897;53.514;10.482;2023-07-31T01:42:16;38.50;;;30.70;;
23682;SDS011;24897;53.514;10.482;2023-07-31T01:45:00;36.07;;;29.83;;
23682;SDS011;24897;53.514;10.482;2023-07-31T01:47:44;35.63;;;30.50;;
23682;SDS011;24897;53.514;10.482;2023-07-31T01:50:29;42.10;;;30.73;;
23682;SDS011;24897;53.514;10.482;2023-07-31T01:53:13;40.70;;;30.73;;
23682;SDS011;24897;53.514;10.482;2023-07-31T01:55:58;38.73;;;29.97;;
23682;SDS011;24897;53.514;10.482;2023-07-31T01:58:42;38.30;;;29.67;;
23682;SDS011;24897;53.514;10.482;2023-07-31T02:01:26;34.97;;;29.33;;
23682;SDS011;24897;53.514;10.482;2023-07-31T02:04:10;39.97;;;29.47;;
23682;SDS011;24897;53.514;10.482;2023-07-31T02:06:54;39.47;;;28.37;;
23682;SDS011;24897;53.514;10.482;2023-07-31T02:09:38;38.60;;;29.47;;
23682;SDS011;24897;53.514;10.482;2023-07-31T02:12:22;37.23;;;28.93;;
23682;SDS011;24897;53.514;10.482;2023-07-31T02:15:06;35.83;;;29.70;;
23682;SDS011;24897;53.514;10.482;2023-07-31T02:17:50;40.63;;;29.83;;
23682;SDS011;24897;53.514;10.482;2023-07-31T02:20:34;38.13;;;29.00;;
23682;SDS011;24897;53.514;10.482;2023-07-31T02:23:19;36.03;;;29.10;;
23682;SDS011;24897;53.514;10.482;2023-07-31T02:26:03;35.57;;;27.47;;
23682;SDS011;24897;53.514;10.482;2023-07-31T02:28:48;35.53;;;29.60;;
23682;SDS011;24897;53.514;10.482;2023-07-31T02:31:32;34.17;;;28.53;;
23682;SDS011;24897;53.514;10.482;2023-07-31T02:34:16;36.70;;;27.87;;
23682;SDS011;24897;53.514;10.482;2023-07-31T02:37:00;35.10;;;27.83;;
23682;SDS011;24897;53.514;10.482;2023-07-31T02:39:45;37.40;;;30.10;;
23682;SDS011;24897;53.514;10.482;2023-07-31T02:42:29;34.27;;;27.60;;
23682;SDS011;24897;53.514;10.482;2023-07-31T02:45:13;35.63;;;29.10;;
23682;SDS011;24897;53.514;10.482;2023-07-31T02:47:57;37.63;;;29.00;;
23682;SDS011;24897;53.514;10.482;2023-07-31T02:50:41;36.00;;;30.70;;
23682;SDS011;24897;53.514;10.482;2023-07-31T02:53:25;40.83;;;30.00;;
23682;SDS011;24897;53.514;10.482;2023-07-31T02:56:09;35.77;;;28.97;;
23682;SDS011;24897;53.514;10.482;2023-07-31T02:58:53;37.77;;;29.60;;
23682;SDS011;24897;53.514;10.482;2023-07-31T03:01:37;36.40;;;30.43;;
23682;SDS011;24897;53.514;10.482;2023-07-31T03:04:21;40.07;;;30.80;;
23682;SDS011;24897;53.514;10.482;2023-07-31T03:07:05;38.33;;;30.47;;
23682;SDS011;24897;53.514;10.482;2023-07-31T03:09:50;41.17;;;31.07;;
23682;SDS011;24897;53.514;10.482;2023-07-31T03:12:35;41.20;;;31.53;;
23682;SDS011;24897;53.514;10.482;2023-07-31T03:15:18;39.73;;;31.33;;
23682;SDS011;24897;53.514;10.482;2023-07-31T03:18:03;39.67;;;31.57;;
23682;SDS011;24897;53.514;10.482;2023-07-31T03:20:47;39.30;;;31.33;;
23682;SDS011;24897;53.514;10.482;2023-07-31T03:23:31;39.17;;;30.87;;
23682;SDS011;24897;53.514;10.482;2023-07-31T03:26:15;38.10;;;31.03;;
23682;SDS011;24897;53.514;10.482;2023-07-31T03:28:59;38.40;;;31.87;;
23682;SDS011;24897;53.514;10.482;2023-07-31T03:31:43;36.03;;;30.23;;
23682;SDS011;24897;53.514;10.482;2023-07-31T03:34:27;38.87;;;31.43;;
23682;SDS011;24897;53.514;10.482;2023-07-31T03:37:11;37.23;;;31.23;;
23682;SDS011;24897;53.514;10.482;2023-07-31T03:39:55;38.77;;;31.47;;
23682;SDS011;24897;53.514;10.482;2023-07-31T03:42:39;42.03;;;32.10;;
23682;SDS011;24897;53.514;10.482;2023-07-31T03:45:23;41.00;;;32.70;;
23682;SDS011;24897;53.514;10.482;2023-07-31T03:48:07;35.40;;;31.47;;
23682;SDS011;24897;53.514;10.482;2023-07-31T03:50:52;40.00;;;33.43;;
23682;SDS011;24897;53.514;10.482;2023-07-31T03:53:36;39.07;;;33.30;;
23682;SDS011;24897;53.514;10.482;2023-07-31T03:56:20;39.50;;;32.73;;
23682;SDS011;24897;53.514;10.482;2023-07-31T03:59:04;37.43;;;32.50;;
23682;SDS011;24897;53.514;10.482;2023-07-31T04:01:49;38.27;;;33.87;;
23682;SDS011;24897;53.514;10.482;2023-07-31T04:04:32;43.07;;;35.93;;
23682;SDS011;24897;53.514;10.482;2023-07-31T04:07:16;42.57;;;35.70;;
23682;SDS011;24897;53.514;10.482;2023-07-31T04:10:01;46.13;;;37.50;;
23682;SDS011;24897;53.514;10.482;2023-07-31T04:12:45;42.80;;;36.53;;
23682;SDS011;24897;53.514;10.482;2023-07-31T04:15:29;47.00;;;37.53;;
23682;SDS011;24897;53.514;10.482;2023-07-31T04:18:13;45.37;;;39.40;;
23682;SDS011;24897;53.514;10.482;2023-07-31T04:20:57;47.07;;;39.10;;
23682;SDS011;24897;53.514;10.482;2023-07-31T04:23:42;43.07;;;37.33;;
23682;SDS011;24897;53.514;10.482;2023-07-31T04:26:25;44.10;;;36.90;;
23682;SDS011;24897;53.514;10.482;2023-07-31T04:29:10;44.57;;;39.67;;
23682;SDS011;24897;53.514;10.482;2023-07-31T04:31:54;44.43;;;38.67;;
23682;SDS011;24897;53.514;10.482;2023-07-31T04:34:38;44.17;;;38.57;;
23682;SDS011;24897;53.514;10.482;2023-07-31T04:37:22;42.37;;;37.73;;
23682;SDS011;24897;53.514;10.482;2023-07-31T04:40:06;45.00;;;38.60;;
23682;SDS011;24897;53.514;10.482;2023-07-31T04:42:51;44.57;;;38.13;;
23682;SDS011;24897;53.514;10.482;2023-07-31T04:45:36;42.07;;;37.10;;
23682;SDS011;24897;53.514;10.482;2023-07-31T04:48:20;44.50;;;39.07;;
23682;SDS011;24897;53.514;10.482;2023-07-31T04:51:04;42.13;;;37.43;;
23682;SDS011;24897;53.514;10.482;2023-07-31T04:53:48;44.43;;;39.63;;
23682;SDS011;24897;53.514;10.482;2023-07-31T04:56:32;45.67;;;39.17;;
23682;SDS011;24897;53.514;10.482;2023-07-31T04:59:16;42.70;;;37.53;;
23682;SDS011;24897;53.514;10.482;2023-07-31T05:02:00;42.10;;;37.50;;
23682;SDS011;24897;53.514;10.482;2023-07-31T05:04:45;42.00;;;36.60;;
23682;SDS011;24897;53.514;10.482;2023-07-31T05:07:29;46.07;;;39.47;;
23682;SDS011;24897;53.514;10.482;2023-07-31T05:10:13;43.17;;;37.67;;
23682;SDS011;24897;53.514;10.482;2023-07-31T05:12:57;45.37;;;38.10;;
23682;SDS011;24897;53.514;10.482;2023-07-31T05:15:41;42.20;;;37.40;;
23682;SDS011;24897;53.514;10.482;2023-07-31T05:18:25;40.73;;;35.40;;
23682;SDS011;24897;53.514;10.482;2023-07-31T05:21:10;42.57;;;36.53;;
23682;SDS011;24897;53.514;10.482;2023-07-31T05:23:54;42.90;;;33.50;;
23682;SDS011;24897;53.514;10.482;2023-07-31T05:26:38;43.13;;;36.23;;
23682;SDS011;24897;53.514;10.482;2023-07-31T05:29:22;39.53;;;33.47;;
23682;SDS011;24897;53.514;10.482;2023-07-31T05:32:07;42.40;;;35.67;;
23682;SDS011;24897;53.514;10.482;2023-07-31T05:34:51;41.40;;;34.90;;
23682;SDS011;24897;53.514;10.482;2023-07-31T05:37:36;41.37;;;35.23;;
23682;SDS011;24897;53.514;10.482;2023-07-31T05:40:20;40.73;;;35.87;;
23682;SDS011;24897;53.514;10.482;2023-07-31T05:43:04;38.27;;;33.47;;
23682;SDS011;24897;53.514;10.482;2023-07-31T05:45:51;54.47;;;40.37;;
23682;SDS011;24897;53.514;10.482;2023-07-31T05:48:35;37.83;;;32.27;;
23682;SDS011;24897;53.514;10.482;2023-07-31T05:51:19;40.10;;;34.97;;
23682;SDS011;24897;53.514;10.482;2023-07-31T05:54:03;37.87;;;32.77;;
23682;SDS011;24897;53.514;10.482;2023-07-31T05:56:47;39.03;;;33.27;;
23682;SDS011;24897;53.514;10.482;2023-07-31T05:59:32;40.50;;;33.97;;
23682;SDS011;24897;53.514;10.482;2023-07-31T06:02:16;38.80;;;34.07;;
23682;SDS011;24897;53.514;10.482;2023-07-31T06:05:00;40.67;;;33.77;;
23682;SDS011;24897;53.514;10.482;2023-07-31T06:07:44;38.23;;;32.67;;
23682;SDS011;24897;53.514;10.482;2023-07-31T06:10:29;39.40;;;33.53;;
23682;SDS011;24897;53.514;10.482;2023-07-31T06:13:13;41.60;;;33.87;;
23682;SDS011;24897;53.514;10.482;2023-07-31T06:15:57;39.73;;;33.63;;
23682;SDS011;24897;53.514;10.482;2023-07-31T06:18:42;42.43;;;35.03;;
23682;SDS011;24897;53.514;10.482;2023-07-31T06:21:27;38.60;;;34.13;;
23682;SDS011;24897;53.514;10.482;2023-07-31T06:24:11;41.03;;;34.87;;
23682;SDS011;24897;53.514;10.482;2023-07-31T06:26:56;37.80;;;32.77;;
23682;SDS011;24897;53.514;10.482;2023-07-31T06:29:42;42.83;;;35.37;;
23682;SDS011;24897;53.514;10.482;2023-07-31T06:32:26;37.13;;;32.63;;
23682;SDS011;24897;53.514;10.482;2023-07-31T06:35:10;38.03;;;32.40;;
23682;SDS011;24897;53.514;10.482;2023-07-31T06:37:54;38.33;;;32.77;;
23682;SDS011;24897;53.514;10.482;2023-07-31T06:40:38;39.17;;;34.27;;
23682;SDS011;24897;53.514;10.482;2023-07-31T06:43:22;40.83;;;34.60;;
23682;SDS011;24897;53.514;10.482;2023-07-31T06:46:06;38.57;;;33.77;;
23682;SDS011;24897;53.514;10.482;2023-07-31T06:48:50;37.80;;;32.73;;
23682;SDS011;24897;53.514;10.482;2023-07-31T06:51:34;40.27;;;34.23;;
23682;SDS011;24897;53.514;10.482;2023-07-31T06:54:19;39.17;;;34.03;;
23682;SDS011;24897;53.514;10.482;2023-07-31T06:57:03;36.53;;;32.57;;
23682;SDS011;24897;53.514;10.482;2023-07-31T06:59:48;36.43;;;32.37;;
23682;SDS011;24897;53.514;10.482;2023-07-31T07:02:32;36.77;;;32.87;;
23682;SDS011;24897;53.514;10.482;2023-07-31T07:05:17;34.77;;;31.10;;
23682;SDS011;24897;53.514;10.482;2023-07-31T07:08:02;36.07;;;32.17;;
23682;SDS011;24897;53.514;10.482;2023-07-31T07:10:46;36.63;;;32.73;;
23682;SDS011;24897;53.514;10.482;2023-07-31T07:13:30;37.07;;;33.10;;
23682;SDS011;24897;53.514;10.482;2023-07-31T07:16:14;33.17;;;29.57;;
23682;SDS011;24897;53.514;10.482;2023-07-31T07:18:58;32.87;;;29.40;;
23682;SDS011;24897;53.514;10.482;2023-07-31T07:21:42;32.67;;;29.27;;
23682;SDS011;24897;53.514;10.482;2023-07-31T07:24:27;34.43;;;30.93;;
23682;SDS011;24897;53.514;10.482;2023-07-31T07:27:12;34.27;;;30.77;;
23682;SDS011;24897;53.514;10.482;2023-07-31T07:29:56;34.67;;;31.07;;
23682;SDS011;24897;53.514;10.482;2023-07-31T07:32:40;33.33;;;29.73;;
23682;SDS011;24897;53.514;10.482;2023-07-31T07:35:24;36.23;;;32.53;;
23682;SDS011;24897;53.514;10.482;2023-07-31T07:38:08;37.27;;;33.37;;
23682;SDS011;24897;53.514;10.482;2023-07-31T07:40:52;34.80;;;31.30;;
23682;SDS011;24897;53.514;10.482;2023-07-31T07:43:37;35.60;;;32.10;;
23682;SDS011;24897;53.514;10.482;2023-07-31T07:46:21;34.03;;;30.53;;
23682;SDS011;24897;53.514;10.482;2023-07-31T07:49:06;34.23;;;30.63;;
23682;SDS011;24897;53.514;10.482;2023-07-31T07:51:50;34.73;;;31.23;;
23682;SDS011;24897;53.514;10.482;2023-07-31T07:54:34;33.30;;;30.00;;
23682;SDS011;24897;53.514;10.482;2023-07-31T07:57:18;34.63;;;31.03;;
23682;SDS011;24897;53.514;10.482;2023-07-31T08:00:02;34.27;;;30.77;;
23682;SDS011;24897;53.514;10.482;2023-07-31T08:02:47;38.63;;;34.53;;
23682;SDS011;24897;53.514;10.482;2023-07-31T08:05:31;35.90;;;32.10;;
23682;SDS011;24897;53.514;10.482;2023-07-31T08:08:17;35.07;;;31.37;;
23682;SDS011;24897;53.514;10.482;2023-07-31T08:11:02;35.93;;;32.13;;
23682;SDS011;24897;53.514;10.482;2023-07-31T08:13:46;33.53;;;29.97;;
23682;SDS011;24897;53.514;10.482;2023-07-31T08:16:30;32.63;;;29.20;;
23682;SDS011;24897;53.514;10.482;2023-07-31T08:19:14;30.23;;;27.13;;
23682;SDS011;24897;53.514;10.482;2023-07-31T08:21:58;33.33;;;29.83;;
23682;SDS011;24897;53.514;10.482;2023-07-31T08:24:42;32.50;;;29.10;;
23682;SDS011;24897;53.514;10.482;2023-07-31T08:27:26;32.10;;;28.70;;
23682;SDS011;24897;53.514;10.482;2023-07-31T08:30:11;32.70;;;29.30;;
23682;SDS011;24897;53.514;10.482;2023-07-31T08:32:56;32.83;;;29.33;;
23682;SDS011;24897;53.514;10.482;2023-07-31T08:35:40;31.60;;;28.20;;
23682;SDS011;24897;53.514;10.482;2023-07-31T08:38:25;34.77;;;31.07;;
23682;SDS011;24897;53.514;10.482;2023-07-31T08:41:10;33.57;;;30.03;;
23682;SDS011;24897;53.514;10.482;2023-07-31T08:43:54;36.60;;;32.70;;
23682;SDS011;24897;53.514;10.482;2023-07-31T08:46:40;36.93;;;32.37;;
23682;SDS011;24897;53.514;10.482;2023-07-31T08:49:25;35.07;;;31.37;;
23682;SDS011;24897;53.514;10.482;2023-07-31T08:52:10;34.80;;;30.43;;
23682;SDS011;24897;53.514;10.482;2023-07-31T08:54:54;35.70;;;31.87;;
23682;SDS011;24897;53.514;10.482;2023-07-31T08:57:38;36.20;;;32.20;;
23682;SDS011;24897;53.514;10.482;2023-07-31T09:00:25;36.07;;;30.17;;
23682;SDS011;24897;53.514;10.482;2023-07-31T09:03:12;36.17;;;29.47;;
23682;SDS011;24897;53.514;10.482;2023-07-31T09:06:08;37.40;;;31.57;;
23682;SDS011;24897;53.514;10.482;2023-07-31T09:08:53;39.20;;;30.80;;
23682;SDS011;24897;53.514;10.482;2023-07-31T09:11:39;42.40;;;33.57;;
23682;SDS011;24897;53.514;10.482;2023-07-31T09:14:27;40.97;;;32.70;;
23682;SDS011;24897;53.514;10.482;2023-07-31T09:17:11;39.97;;;33.47;;
23682;SDS011;24897;53.514;10.482;2023-07-31T09:19:55;37.47;;;31.13;;
23682;SDS011;24897;53.514;10.482;2023-07-31T09:22:40;37.97;;;31.47;;
23682;SDS011;24897;53.514;10.482;2023-07-31T09:25:25;36.97;;;31.30;;
23682;SDS011;24897;53.514;10.482;2023-07-31T09:28:10;44.00;;;35.67;;
23682;SDS011;24897;53.514;10.482;2023-07-31T09:30:55;34.77;;;29.43;;
23682;SDS011;24897;53.514;10.482;2023-07-31T09:33:53;34.00;;;28.67;;
23682;SDS011;24897;53.514;10.482;2023-07-31T09:36:40;35.53;;;30.03;;
23682;SDS011;24897;53.514;10.482;2023-07-31T09:39:26;40.40;;;33.57;;
23682;SDS011;24897;53.514;10.482;2023-07-31T09:42:11;43.60;;;36.57;;
23682;SDS011;24897;53.514;10.482;2023-07-31T09:44:55;40.47;;;31.60;;
23682;SDS011;24897;53.514;10.482;2023-07-31T09:47:53;40.50;;;32.57;;
23682;SDS011;24897;53.514;10.482;2023-07-31T09:50:38;40.77;;;32.20;;
23682;SDS011;24897;53.514;10.482;2023-07-31T09:53:28;40.20;;;31.23;;
23682;SDS011;24897;53.514;10.482;2023-07-31T09:56:15;43.70;;;34.80;;
23682;SDS011;24897;53.514;10.482;2023-07-31T09:59:01;46.00;;;36.33;;
23682;SDS011;24897;53.514;10.482;2023-07-31T10:01:48;51.90;;;41.47;;
23682;SDS011;24897;53.514;10.482;2023-07-31T10:04:33;174.63;;;156.63;;
23682;SDS011;24897;53.514;10.482;2023-07-31T10:07:18;154.87;;;138.77;;
23682;SDS011;24897;53.514;10.482;2023-07-31T10:10:04;63.50;;;52.20;;
23682;SDS011;24897;53.514;10.482;2023-07-31T10:12:50;59.17;;;46.67;;
23682;SDS011;24897;53.514;10.482;2023-07-31T10:15:36;57.10;;;46.17;;
23682;SDS011;24897;53.514;10.482;2023-07-31T10:18:20;52.83;;;42.57;;
23682;SDS011;24897;53.514;10.482;2023-07-31T10:21:04;50.03;;;38.93;;
23682;SDS011;24897;53.514;10.482;2023-07-31T10:23:50;48.30;;;37.03;;
23682;SDS011;24897;53.514;10.482;2023-07-31T10:26:34;48.90;;;36.23;;
23682;SDS011;24897;53.514;10.482;2023-07-31T10:29:21;52.93;;;39.67;;
23682;SDS011;24897;53.514;10.482;2023-07-31T10:32:07;57.63;;;39.67;;
23682;SDS011;24897;53.514;10.482;2023-07-31T10:34:55;190.10;;;169.83;;
23682;SDS011;24897;53.514;10.482;2023-07-31T10:37:40;90.10;;;63.97;;
23682;SDS011;24897;53.514;10.482;2023-07-31T10:40:26;92.27;;;62.87;;
23682;SDS011;24897;53.514;10.482;2023-07-31T10:43:23;78.10;;;55.03;;
23682;SDS011;24897;53.514;10.482;2023-07-31T10:46:12;79.73;;;52.47;;
23682;SDS011;24897;53.514;10.482;2023-07-31T10:48:58;85.30;;;54.47;;
23682;SDS011;24897;53.514;10.482;2023-07-31T10:51:44;74.43;;;47.00;;
23682;SDS011;24897;53.514;10.482;2023-07-31T10:54:28;68.23;;;42.57;;
23682;SDS011;24897;53.514;10.482;2023-07-31T10:57:18;74.43;;;49.77;;
23682;SDS011;24897;53.514;10.482;2023-07-31T11:03:06;57.83;;;36.83;;
23682;SDS011;24897;53.514;10.482;2023-07-31T11:08:47;55.43;;;35.40;;
23682;SDS011;24897;53.514;10.482;2023-07-31T11:11:32;55.33;;;36.03;;
23682;SDS011;24897;53.514;10.482;2023-07-31T11:14:17;47.47;;;33.30;;
23682;SDS011;24897;53.514;10.482;2023-07-31T11:17:05;45.53;;;32.73;;
23682;SDS011;24897;53.514;10.482;2023-07-31T11:19:50;44.27;;;31.93;;
23682;SDS011;24897;53.514;10.482;2023-07-31T11:22:35;44.87;;;32.97;;
23682;SDS011;24897;53.514;10.482;2023-07-31T11:25:19;46.87;;;32.97;;
23682;SDS011;24897;53.514;10.482;2023-07-31T11:28:04;45.80;;;31.97;;
23682;SDS011;24897;53.514;10.482;2023-07-31T11:30:49;46.13;;;32.80;;
23682;SDS011;24897;53.514;10.482;2023-07-31T11:33:33;49.60;;;33.80;;
23682;SDS011;24897;53.514;10.482;2023-07-31T11:36:18;46.87;;;34.27;;
23682;SDS011;24897;53.514;10.482;2023-07-31T11:39:07;47.43;;;34.43;;
23682;SDS011;24897;53.514;10.482;2023-07-31T11:41:58;41.23;;;31.73;;
23682;SDS011;24897;53.514;10.482;2023-07-31T11:44:42;41.27;;;30.37;;
23682;SDS011;24897;53.514;10.482;2023-07-31T11:47:32;40.57;;;31.53;;
23682;SDS011;24897;53.514;10.482;2023-07-31T11:50:18;42.63;;;32.67;;
23682;SDS011;24897;53.514;10.482;2023-07-31T11:53:03;43.27;;;31.73;;
23682;SDS011;24897;53.514;10.482;2023-07-31T11:55:52;44.80;;;32.00;;
23682;SDS011;24897;53.514;10.482;2023-07-31T11:58:37;40.00;;;30.33;;
23682;SDS011;24897;53.514;10.482;2023-07-31T12:01:22;41.77;;;32.10;;
23682;SDS011;24897;53.514;10.482;2023-07-31T12:04:07;46.27;;;33.17;;
23682;SDS011;24897;53.514;10.482;2023-07-31T12:06:52;44.13;;;32.60;;
23682;SDS011;24897;53.514;10.482;2023-07-31T12:09:36;43.87;;;32.23;;
23682;SDS011;24897;53.514;10.482;2023-07-31T12:12:21;44.27;;;32.47;;
23682;SDS011;24897;53.514;10.482;2023-07-31T12:15:13;40.57;;;30.30;;
23682;SDS011;24897;53.514;10.482;2023-07-31T12:17:59;35.90;;;28.53;;
23682;SDS011;24897;53.514;10.482;2023-07-31T12:20:48;36.10;;;26.83;;
23682;SDS011;24897;53.514;10.482;2023-07-31T12:23:37;37.07;;;28.03;;
23682;SDS011;24897;53.514;10.482;2023-07-31T12:26:22;37.67;;;29.43;;
23682;SDS011;24897;53.514;10.482;2023-07-31T12:29:07;38.97;;;29.63;;
23682;SDS011;24897;53.514;10.482;2023-07-31T12:31:52;38.80;;;28.23;;
23682;SDS011;24897;53.514;10.482;2023-07-31T12:34:42;35.30;;;26.67;;
23682;SDS011;24897;53.514;10.482;2023-07-31T12:37:27;40.17;;;29.27;;
23682;SDS011;24897;53.514;10.482;2023-07-31T12:40:12;40.47;;;30.03;;
23682;SDS011;24897;53.514;10.482;2023-07-31T12:42:56;40.43;;;29.77;;
23682;SDS011;24897;53.514;10.482;2023-07-31T12:45:41;41.47;;;31.97;;
23682;SDS011;24897;53.514;10.482;2023-07-31T12:48:25;45.03;;;36.27;;
23682;SDS011;24897;53.514;10.482;2023-07-31T12:51:09;44.10;;;35.40;;
23682;SDS011;24897;53.514;10.482;2023-07-31T12:53:53;37.37;;;26.93;;
23682;SDS011;24897;53.514;10.482;2023-07-31T12:56:37;38.57;;;29.37;;
23682;SDS011;24897;53.514;10.482;2023-07-31T12:59:21;33.77;;;27.17;;
23682;SDS011;24897;53.514;10.482;2023-07-31T13:02:05;36.53;;;30.00;;
23682;SDS011;24897;53.514;10.482;2023-07-31T13:04:49;37.20;;;29.23;;
23682;SDS011;24897;53.514;10.482;2023-07-31T13:07:34;35.43;;;29.17;;
23682;SDS011;24897;53.514;10.482;2023-07-31T13:10:19;33.97;;;29.20;;
23682;SDS011;24897;53.514;10.482;2023-07-31T13:13:03;38.07;;;30.33;;
23682;SDS011;24897;53.514;10.482;2023-07-31T13:15:47;35.07;;;29.97;;
23682;SDS011;24897;53.514;10.482;2023-07-31T13:18:31;35.83;;;28.50;;
23682;SDS011;24897;53.514;10.482;2023-07-31T13:21:15;32.87;;;27.93;;
23682;SDS011;24897;53.514;10.482;2023-07-31T13:24:00;37.67;;;31.37;;
23682;SDS011;24897;53.514;10.482;2023-07-31T13:26:44;43.37;;;34.33;;
23682;SDS011;24897;53.514;10.482;2023-07-31T13:29:29;39.77;;;32.57;;
23682;SDS011;24897;53.514;10.482;2023-07-31T13:32:13;37.50;;;30.97;;
23682;SDS011;24897;53.514;10.482;2023-07-31T13:34:59;40.67;;;33.77;;
23682;SDS011;24897;53.514;10.482;2023-07-31T13:37:43;37.03;;;30.80;;
23682;SDS011;24897;53.514;10.482;2023-07-31T13:40:27;36.53;;;29.70;;
23682;SDS011;24897;53.514;10.482;2023-07-31T13:43:11;35.53;;;28.40;;
23682;SDS011;24897;53.514;10.482;2023-07-31T13:45:55;36.17;;;29.90;;
23682;SDS011;24897;53.514;10.482;2023-07-31T13:48:39;33.27;;;28.17;;
23682;SDS011;24897;53.514;10.482;2023-07-31T13:51:24;33.17;;;28.20;;
23682;SDS011;24897;53.514;10.482;2023-07-31T13:54:09;35.53;;;29.33;;
23682;SDS011;24897;53.514;10.482;2023-07-31T13:56:55;35.17;;;29.17;;
23682;SDS011;24897;53.514;10.482;2023-07-31T13:59:39;42.80;;;31.73;;
23682;SDS011;24897;53.514;10.482;2023-07-31T14:02:24;36.30;;;28.43;;
23682;SDS011;24897;53.514;10.482;2023-07-31T14:05:08;38.27;;;29.10;;
23682;SDS011;24897;53.514;10.482;2023-07-31T14:07:53;36.77;;;28.00;;
23682;SDS011;24897;53.514;10.482;2023-07-31T14:10:37;40.33;;;31.67;;
23682;SDS011;24897;53.514;10.482;2023-07-31T14:13:21;36.70;;;27.70;;
23682;SDS011;24897;53.514;10.482;2023-07-31T14:16:05;37.27;;;29.53;;
23682;SDS011;24897;53.514;10.482;2023-07-31T14:18:50;33.97;;;26.77;;
23682;SDS011;24897;53.514;10.482;2023-07-31T14:21:34;32.87;;;26.63;;
23682;SDS011;24897;53.514;10.482;2023-07-31T14:24:18;31.00;;;26.40;;
23682;SDS011;24897;53.514;10.482;2023-07-31T14:27:02;30.63;;;26.40;;
23682;SDS011;24897;53.514;10.482;2023-07-31T14:29:47;31.00;;;26.63;;
23682;SDS011;24897;53.514;10.482;2023-07-31T14:32:31;31.03;;;26.67;;
23682;SDS011;24897;53.514;10.482;2023-07-31T14:35:18;30.30;;;26.13;;
23682;SDS011;24897;53.514;10.482;2023-07-31T14:38:02;31.97;;;26.77;;
23682;SDS011;24897;53.514;10.482;2023-07-31T14:40:46;32.43;;;27.57;;
23682;SDS011;24897;53.514;10.482;2023-07-31T14:43:30;29.77;;;25.57;;
23682;SDS011;24897;53.514;10.482;2023-07-31T14:46:14;82.13;;;75.23;;
23682;SDS011;24897;53.514;10.482;2023-07-31T14:48:58;79.87;;;73.17;;
23682;SDS011;24897;53.514;10.482;2023-07-31T14:51:43;90.80;;;83.00;;
23682;SDS011;24897;53.514;10.482;2023-07-31T14:54:27;101.70;;;92.27;;
23682;SDS011;24897;53.514;10.482;2023-07-31T14:57:13;386.93;;;344.47;;
23682;SDS011;24897;53.514;10.482;2023-07-31T14:59:57;122.47;;;110.97;;
23682;SDS011;24897;53.514;10.482;2023-07-31T15:02:41;133.33;;;120.70;;
23682;SDS011;24897;53.514;10.482;2023-07-31T15:05:25;123.80;;;112.63;;
23682;SDS011;24897;53.514;10.482;2023-07-31T15:08:09;117.20;;;106.73;;
23682;SDS011;24897;53.514;10.482;2023-07-31T15:10:54;117.33;;;106.87;;
23682;SDS011;24897;53.514;10.482;2023-07-31T15:13:40;101.93;;;92.57;;
23682;SDS011;24897;53.514;10.482;2023-07-31T15:16:25;108.33;;;98.47;;
23682;SDS011;24897;53.514;10.482;2023-07-31T15:19:09;121.67;;;110.63;;
23682;SDS011;24897;53.514;10.482;2023-07-31T15:21:56;105.70;;;96.10;;
23682;SDS011;24897;53.514;10.482;2023-07-31T15:24:40;97.40;;;88.80;;
23682;SDS011;24897;53.514;10.482;2023-07-31T15:27:24;298.00;;;267.47;;
23682;SDS011;24897;53.514;10.482;2023-07-31T15:30:08;270.10;;;242.53;;
23682;SDS011;24897;53.514;10.482;2023-07-31T15:32:53;288.40;;;259.17;;
23682;SDS011;24897;53.514;10.482;2023-07-31T15:35:38;114.63;;;104.27;;
23682;SDS011;24897;53.514;10.482;2023-07-31T15:38:22;110.90;;;100.83;;
23682;SDS011;24897;53.514;10.482;2023-07-31T15:41:07;113.90;;;103.57;;
23682;SDS011;24897;53.514;10.482;2023-07-31T15:43:51;109.20;;;99.53;;
23682;SDS011;24897;53.514;10.482;2023-07-31T15:46:35;93.27;;;85.20;;
23682;SDS011;24897;53.514;10.482;2023-07-31T15:49:19;109.67;;;99.50;;
23682;SDS011;24897;53.514;10.482;2023-07-31T15:52:03;100.40;;;91.73;;
23682;SDS011;24897;53.514;10.482;2023-07-31T15:54:48;102.43;;;93.17;;
23682;SDS011;24897;53.514;10.482;2023-07-31T15:57:35;101.30;;;92.50;;